Time;durP1;ratioP1;P1;durP2;ratioP2;P2;SDS_P1;SDS_P2;PMS_P1;PMS_P2;Temp;Humidity;BMP_temperature;BMP_pressure;BME280_temperature;BME280_humidity;BME280_pressure;Samples;Min_cycle;Max_cycle;Signal;HPM_P1;HPM_P2
2023/01/31 00:03:10;;;;;;;82.35;34.75;;;;;;;-0.59;93.83;100053.97;10377090;28;20042;-71
2023/01/31 00:08:12;;;;;;;72.90;32.58;;;;;;;-1.10;94.09;99979.16;10376910;28;20049;-72
2023/01/31 00:13:13;;;;;;;77.40;34.30;;;;;;;-1.25;92.80;99981.00;10377532;28;20443;-71
2023/01/31 00:18:14;;;;;;;70.07;29.50;;;;;;;-1.13;93.02;100008.03;10369161;28;20192;-71
2023/01/31 00:23:15;;;;;;;74.70;30.05;;;;;;;-0.94;93.03;100054.56;10336326;28;20497;-71
2023/01/31 00:28:16;;;;;;;58.53;28.33;;;;;;;-1.35;93.23;100015.56;10334377;28;20081;-70
2023/01/31 00:33:17;;;;;;;53.13;25.98;;;;;;;-1.39;93.54;100031.41;10335921;28;20538;-70
2023/01/31 00:38:17;;;;;;;50.53;24.58;;;;;;;-1.89;93.28;99962.56;10335150;28;20495;-70
2023/01/31 00:43:18;;;;;;;55.58;26.00;;;;;;;-1.40;93.39;100047.97;10335149;28;20078;-70
2023/01/31 00:48:19;;;;;;;49.63;25.13;;;;;;;-1.53;93.01;100007.19;10335105;28;20086;-70
2023/01/31 00:53:24;;;;;;;51.85;25.30;;;;;;;-1.31;93.20;100035.31;10334524;28;20046;-70
2023/01/31 00:58:25;;;;;;;58.67;26.25;;;;;;;-1.49;92.79;100026.91;10339625;28;20042;-70
2023/01/31 01:03:26;;;;;;;58.40;28.25;;;;;;;-1.46;92.11;100031.91;10372444;28;20537;-70
2023/01/31 01:08:28;;;;;;;59.15;28.60;;;;;;;-2.08;92.70;99942.06;10374628;28;20050;-70
2023/01/31 01:13:28;;;;;;;66.85;27.75;;;;;;;-1.48;93.08;100020.75;10375034;28;20600;-70
2023/01/31 01:18:29;;;;;;;52.92;25.38;;;;;;;-1.56;93.36;100017.78;10374821;28;20179;-70
2023/01/31 01:23:30;;;;;;;57.95;25.48;;;;;;;-1.48;92.85;100033.78;10373429;28;20042;-70
2023/01/31 01:28:34;;;;;;;49.92;22.17;;;;;;;-1.57;93.10;100009.16;10373453;28;20042;-70
2023/01/31 01:33:36;;;;;;;69.78;32.47;;;;;;;-1.80;93.01;99962.91;10373649;28;20037;-70
2023/01/31 01:38:37;;;;;;;66.13;35.15;;;;;;;-1.64;93.16;99989.66;10373180;28;20052;-70
2023/01/31 01:43:41;;;;;;;54.40;25.50;;;;;;;-1.47;93.73;100005.00;10372207;28;20087;-70
2023/01/31 01:48:46;;;;;;;46.60;23.10;;;;;;;-1.94;93.60;99912.56;10373604;28;20058;-71
2023/01/31 01:53:51;;;;;;;53.55;25.90;;;;;;;-1.32;93.89;99984.09;10372599;28;20045;-70
2023/01/31 01:59:01;;;;;;;63.78;28.83;;;;;;;-1.65;94.53;99930.66;10372440;28;20074;-70
2023/01/31 02:04:06;;;;;;;59.08;29.33;;;;;;;-1.11;93.81;100018.34;10372250;28;20092;-70
2023/01/31 02:09:12;;;;;;;58.50;27.15;;;;;;;-1.16;94.50;99992.59;10373093;28;20053;-70
2023/01/31 02:14:14;;;;;;;57.35;29.25;;;;;;;-1.34;94.51;99941.69;10341996;28;20038;-70
2023/01/31 02:19:45;;;;;;;60.13;28.90;;;;;;;-0.69;96.11;100017.22;10331885;28;20042;-70
2023/01/31 02:25:12;;;;;;;63.42;28.17;;;;;;;-1.54;95.43;99862.25;10331633;28;20046;-70
2023/01/31 02:30:15;;;;;;;49.05;24.52;;;;;;;-0.54;94.37;100008.38;10337441;28;20046;-70
2023/01/31 02:35:47;;;;;;;40.90;22.30;;;;;;;-1.40;95.06;99852.56;10340541;28;20078;-70
2023/01/31 02:41:13;;;;;;;41.45;22.75;;;;;;;-0.50;96.03;99969.84;10339350;28;20038;-71
2023/01/31 02:46:16;;;;;;;39.45;21.10;;;;;;;-0.25;95.42;99982.00;10339282;28;20418;-70
2023/01/31 02:51:25;;;;;;;42.20;23.75;;;;;;;-0.20;95.26;99979.94;10347611;28;20548;-71
2023/01/31 02:56:35;;;;;;;46.20;24.77;;;;;;;-0.01;96.26;100013.38;10363987;28;20576;-71
2023/01/31 03:01:43;;;;;;;44.38;24.45;;;;;;;-0.17;96.39;99956.22;10331786;28;20034;-70
2023/01/31 03:07:25;;;;;;;42.70;24.77;;;;;;;0.23;96.89;100010.81;10333469;28;20052;-71
2023/01/31 03:12:29;;;;;;;43.47;23.60;;;;;;;0.11;95.63;99996.03;10350318;28;20137;-70
2023/01/31 03:17:32;;;;;;;49.80;26.20;;;;;;;-0.07;96.44;99945.94;10339030;28;20042;-70
2023/01/31 03:22:38;;;;;;;43.17;25.70;;;;;;;0.47;95.96;100017.81;10335899;28;20045;-70
2023/01/31 03:27:47;;;;;;;43.70;25.00;;;;;;;0.47;96.17;100008.19;10369396;28;20062;-69
2023/01/31 03:33:10;;;;;;;46.92;26.75;;;;;;;0.38;97.06;99977.53;10355076;28;20067;-70
2023/01/31 03:38:19;;;;;;;47.28;25.23;;;;;;;0.56;97.40;99996.25;10377676;28;20504;-69
2023/01/31 03:43:42;;;;;;;52.08;27.30;;;;;;;0.51;98.73;99933.03;10377703;28;20045;-68
2023/01/31 03:48:48;;;;;;;51.20;27.33;;;;;;;1.00;97.38;99965.97;10378199;28;20089;-69
2023/01/31 03:53:58;;;;;;;39.53;23.60;;;;;;;1.17;97.16;99955.06;10377083;28;20077;-71
2023/01/31 03:59:06;;;;;;;45.67;27.23;;;;;;;1.20;97.02;99933.03;10377574;28;20558;-70
2023/01/31 04:04:14;;;;;;;52.08;27.40;;;;;;;1.46;96.54;99942.31;10376882;28;20050;-68
2023/01/31 04:09:15;;;;;;;54.60;26.83;;;;;;;1.86;96.48;99983.72;10376998;28;20413;-70
2023/01/31 04:14:17;;;;;;;74.78;38.25;;;;;;;1.75;96.39;99994.22;10376784;28;20045;-70
2023/01/31 04:19:18;;;;;;;77.10;39.45;;;;;;;1.62;96.40;100006.59;10376534;28;20165;-71
2023/01/31 04:24:19;;;;;;;56.03;32.75;;;;;;;0.99;96.57;99909.34;10375505;28;20149;-71
2023/01/31 04:29:19;;;;;;;64.60;34.13;;;;;;;1.26;96.14;99983.13;10368119;28;20050;-71
2023/01/31 04:34:20;;;;;;;55.95;31.20;;;;;;;1.32;96.03;100000.97;10375829;28;20037;-70
2023/01/31 04:39:21;;;;;;;59.85;31.08;;;;;;;1.27;96.14;100010.97;10370477;28;20116;-71
2023/01/31 04:44:22;;;;;;;60.58;31.35;;;;;;;1.28;96.53;99999.53;10362048;28;20042;-71
2023/01/31 04:49:22;;;;;;;59.95;31.65;;;;;;;1.32;96.61;100000.97;10374362;28;20069;-71
2023/01/31 04:54:23;;;;;;;61.72;31.38;;;;;;;1.07;96.83;99939.22;10374900;28;20049;-72
2023/01/31 04:59:24;;;;;;;53.53;30.65;;;;;;;1.27;96.61;99952.56;10374464;28;20044;-72
2023/01/31 05:04:25;;;;;;;55.97;31.27;;;;;;;1.64;96.27;100009.91;10374763;28;20179;-73
2023/01/31 05:09:26;;;;;;;71.03;33.20;;;;;;;1.66;96.46;100001.00;10374592;28;20525;-74
2023/01/31 05:14:26;;;;;;;63.60;33.33;;;;;;;1.45;96.62;99943.28;10374490;28;20049;-74
2023/01/31 05:19:27;;;;;;;60.05;32.85;;;;;;;1.87;96.08;99985.38;10373831;28;20124;-74
2023/01/31 05:24:32;;;;;;;66.15;32.92;;;;;;;1.47;96.06;99928.31;10373447;28;20042;-73
2023/01/31 05:29:33;;;;;;;74.30;36.78;;;;;;;1.48;96.31;99913.41;10373861;28;20177;-74
2023/01/31 05:34:34;;;;;;;57.38;30.45;;;;;;;2.11;96.46;100000.94;10373016;28;20506;-74
2023/01/31 05:39:35;;;;;;;59.88;33.58;;;;;;;2.02;96.20;99972.84;10373939;28;20046;-74
2023/01/31 05:44:36;;;;;;;85.25;40.15;;;;;;;2.31;95.91;100004.59;10374149;28;20504;-74
2023/01/31 05:49:38;;;;;;;59.25;32.90;;;;;;;1.77;95.86;99898.88;10373269;28;20042;-74
2023/01/31 05:54:38;;;;;;;56.50;32.08;;;;;;;2.50;95.63;99988.22;10373115;28;20046;-73
2023/01/31 05:59:41;;;;;;;49.88;28.15;;;;;;;2.53;95.84;99993.19;10372498;28;20073;-74
2023/01/31 06:04:42;;;;;;;56.97;31.15;;;;;;;2.21;95.85;99915.38;10372100;28;20049;-74
2023/01/31 06:09:42;;;;;;;55.42;31.77;;;;;;;2.66;95.63;99970.28;10371931;28;20579;-74
2023/01/31 06:14:44;;;;;;;76.72;38.22;;;;;;;2.46;95.38;99921.25;10372062;28;20042;-72
2023/01/31 06:19:45;;;;;;;68.70;36.35;;;;;;;2.73;95.83;99947.81;10371808;28;20502;-73
2023/01/31 06:24:46;;;;;;;54.97;30.75;;;;;;;3.07;95.89;99975.66;10372543;28;20042;-74
2023/01/31 06:29:46;;;;;;;50.70;30.10;;;;;;;3.14;95.47;99972.41;10371011;28;20049;-74
2023/01/31 06:34:47;;;;;;;53.25;29.27;;;;;;;3.11;95.20;99964.78;10371954;28;20458;-74
2023/01/31 06:39:48;;;;;;;51.78;27.77;;;;;;;3.12;95.55;99958.56;10372155;28;20100;-74
2023/01/31 06:44:49;;;;;;;56.95;29.50;;;;;;;3.18;95.20;99944.91;10372079;28;20546;-74
2023/01/31 06:49:50;;;;;;;47.63;27.73;;;;;;;3.48;95.30;99973.94;10371220;28;20045;-74
2023/01/31 06:54:50;;;;;;;49.03;27.60;;;;;;;3.17;94.81;99897.78;10371750;28;20041;-73
2023/01/31 06:59:51;;;;;;;68.50;38.55;;;;;;;3.72;94.87;99956.06;10371091;28;20042;-73
2023/01/31 07:04:52;;;;;;;71.05;35.80;;;;;;;3.33;95.21;99869.25;10371374;28;20065;-73
2023/01/31 07:09:53;;;;;;;60.78;33.70;;;;;;;3.93;94.18;99932.31;10370763;28;20048;-73
2023/01/31 07:14:53;;;;;;;59.10;31.70;;;;;;;4.21;94.35;99953.53;10374426;28;20048;-73
2023/01/31 07:19:54;;;;;;;51.63;28.90;;;;;;;3.71;94.10;99858.97;10379090;28;20448;-73
2023/01/31 07:24:55;;;;;;;54.33;28.38;;;;;;;4.34;94.28;99943.59;10378400;28;20425;-73
2023/01/31 07:29:55;;;;;;;52.78;30.73;;;;;;;4.39;94.04;99933.47;10377837;28;20103;-74
2023/01/31 07:34:56;;;;;;;50.25;30.13;;;;;;;4.71;93.30;99963.94;10378258;28;20050;-73
2023/01/31 07:39:57;;;;;;;56.22;29.90;;;;;;;4.54;93.35;99933.88;10378208;28;20037;-74
2023/01/31 07:44:57;;;;;;;49.05;28.13;;;;;;;4.61;93.05;99929.75;10377609;28;20467;-73
2023/01/31 07:49:58;;;;;;;53.45;28.42;;;;;;;4.72;92.56;99945.34;10377799;28;20045;-73
2023/01/31 07:54:59;;;;;;;53.65;27.98;;;;;;;4.80;93.08;99934.97;10377551;28;20037;-73
2023/01/31 08:00:00;;;;;;;56.58;29.15;;;;;;;4.87;91.91;99953.66;10377338;28;20124;-73
2023/01/31 08:05:01;;;;;;;65.60;32.42;;;;;;;4.97;92.41;99959.75;10377759;28;20092;-74
2023/01/31 08:10:02;;;;;;;53.40;29.52;;;;;;;5.11;92.38;99949.72;10376700;28;20042;-73
2023/01/31 08:15:03;;;;;;;50.60;29.67;;;;;;;4.62;91.65;99843.75;10376734;28;20498;-73
2023/01/31 08:20:04;;;;;;;47.45;26.05;;;;;;;5.36;91.31;99943.84;10376002;28;20056;-74
2023/01/31 08:25:05;;;;;;;56.45;32.00;;;;;;;5.22;91.20;99933.78;10375221;28;20541;-73
2023/01/31 08:30:06;;;;;;;59.47;31.90;;;;;;;5.13;92.00;99930.19;10375881;28;20124;-74
2023/01/31 08:35:07;;;;;;;60.65;34.00;;;;;;;4.61;91.12;99828.91;10375916;28;20104;-74
2023/01/31 08:40:09;;;;;;;65.07;33.45;;;;;;;5.14;90.07;99909.94;10375289;28;20108;-74
2023/01/31 08:45:09;;;;;;;68.03;31.45;;;;;;;5.29;89.68;99903.25;10375578;28;20108;-74
2023/01/31 08:50:10;;;;;;;60.80;30.77;;;;;;;5.21;89.34;99871.56;10375183;28;20049;-74
2023/01/31 08:55:12;;;;;;;58.47;30.35;;;;;;;5.53;88.92;99883.44;10373902;28;20072;-74
2023/01/31 09:00:14;;;;;;;59.45;31.30;;;;;;;5.35;87.80;99851.78;10375103;28;20064;-74
2023/01/31 09:05:14;;;;;;;60.78;31.00;;;;;;;5.46;88.09;99860.34;10374984;28;20498;-74
2023/01/31 09:10:19;;;;;;;58.92;32.20;;;;;;;4.99;87.39;99770.06;10372765;28;20050;-74
2023/01/31 09:15:20;;;;;;;54.65;29.65;;;;;;;5.41;87.78;99830.13;10374227;28;20555;-74
2023/01/31 09:20:20;;;;;;;55.60;30.40;;;;;;;5.41;87.55;99812.50;10374315;28;20176;-74
2023/01/31 09:25:21;;;;;;;48.35;26.17;;;;;;;5.36;86.65;99795.53;10374224;28;20038;-74
2023/01/31 09:30:22;;;;;;;53.85;28.52;;;;;;;5.83;86.00;99855.94;10373795;28;20046;-74
2023/01/31 09:35:22;;;;;;;70.45;37.70;;;;;;;6.01;84.74;99858.63;10373898;28;20038;-74
2023/01/31 09:40:25;;;;;;;49.13;28.58;;;;;;;5.84;84.33;99826.81;10373194;28;20092;-74
2023/01/31 09:45:33;;;;;;;52.17;27.58;;;;;;;6.06;82.98;99849.28;10373101;28;20232;-74
2023/01/31 09:50:45;;;;;;;47.33;25.40;;;;;;;5.76;82.06;99812.72;10372738;28;20051;-74
2023/01/31 09:56:03;;;;;;;53.85;28.65;;;;;;;5.56;82.00;99748.78;10373219;28;20128;-74
2023/01/31 10:01:29;;;;;;;50.78;26.58;;;;;;;5.74;80.92;99744.34;10373555;28;20104;-74
2023/01/31 10:06:56;;;;;;;44.85;23.48;;;;;;;6.42;80.48;99800.94;10372716;28;20056;-74
2023/01/31 10:12:23;;;;;;;40.15;22.10;;;;;;;6.26;79.76;99775.28;10372046;28;20069;-74
2023/01/31 10:17:37;;;;;;;34.35;20.40;;;;;;;6.02;78.14;99746.94;10371972;28;20053;-74
2023/01/31 10:23:12;;;;;;;29.95;17.35;;;;;;;6.23;76.46;99794.06;10372913;28;20041;-74
2023/01/31 10:28:28;;;;;;;31.52;17.65;;;;;;;6.07;77.00;99808.78;10371027;28;20080;-74
2023/01/31 10:33:34;;;;;;;36.83;18.27;;;;;;;6.07;76.02;99795.59;10371554;28;20115;-74
2023/01/31 10:38:43;;;;;;;33.20;20.67;;;;;;;5.93;76.61;99783.75;10372305;28;20038;-72
2023/01/31 10:43:59;;;;;;;36.40;22.00;;;;;;;5.99;76.63;99776.22;10371909;28;20038;-73
2023/01/31 10:48:59;;;;;;;36.92;22.33;;;;;;;6.00;78.05;99775.25;10374454;28;20057;-72
2023/01/31 10:54:18;;;;;;;40.00;22.25;;;;;;;6.13;76.84;99775.66;10379970;28;20386;-73
2023/01/31 10:59:30;;;;;;;39.22;22.40;;;;;;;6.15;76.39;99776.34;10379834;28;20522;-72
2023/01/31 11:04:33;;;;;;;34.83;20.83;;;;;;;6.15;75.72;99771.06;10379047;28;20034;-72
2023/01/31 11:09:54;;;;;;;38.83;20.10;;;;;;;5.99;74.73;99765.69;10378872;28;20498;-73
2023/01/31 11:15:16;;;;;;;34.15;21.92;;;;;;;5.97;73.98;99765.00;10378701;28;20076;-72
2023/01/31 11:20:31;;;;;;;43.38;22.63;;;;;;;5.89;73.79;99757.81;10378492;28;20073;-73
2023/01/31 11:25:33;;;;;;;38.80;21.10;;;;;;;5.56;74.43;99706.63;10377645;28;20096;-73
2023/01/31 11:30:39;;;;;;;34.53;20.85;;;;;;;5.52;74.86;99685.03;10378578;28;20064;-73
2023/01/31 11:35:50;;;;;;;36.25;20.10;;;;;;;5.99;73.56;99744.59;10378432;28;20046;-74
2023/01/31 11:40:51;;;;;;;38.88;20.85;;;;;;;5.73;74.72;99713.69;10378264;28;20046;-74
2023/01/31 11:46:02;;;;;;;33.60;19.30;;;;;;;5.99;73.42;99782.34;10378597;28;20062;-74
2023/01/31 11:51:03;;;;;;;29.88;19.48;;;;;;;5.44;74.37;99693.72;10378687;28;20049;-74
2023/01/31 11:56:19;;;;;;;28.38;18.65;;;;;;;5.72;73.23;99698.88;10377619;28;20038;-72
2023/01/31 12:01:22;;;;;;;31.52;18.13;;;;;;;6.17;74.50;99763.84;10377109;28;20452;-71
2023/01/31 12:06:38;;;;;;;31.90;18.37;;;;;;;5.86;70.31;99740.50;10377261;28;20045;-71
2023/01/31 12:11:55;;;;;;;31.95;17.83;;;;;;;5.94;72.78;99788.03;10377586;28;20453;-71
2023/01/31 12:16:59;;;;;;;30.45;17.98;;;;;;;5.82;73.44;99749.69;10376824;28;20072;-71
2023/01/31 12:22:13;;;;;;;29.75;17.13;;;;;;;5.90;71.82;99778.75;10376135;28;20065;-71
2023/01/31 12:27:44;;;;;;;51.93;28.63;;;;;;;5.89;71.03;99789.44;10376498;28;20050;-74
2023/01/31 12:32:56;;;;;;;33.75;21.40;;;;;;;5.61;70.23;99773.72;10368927;28;20046;-74
2023/01/31 12:38:10;;;;;;;41.00;20.23;;;;;;;5.48;71.74;99775.91;10359554;28;20042;-73
2023/01/31 12:43:42;;;;;;;32.17;18.20;;;;;;;5.57;72.48;99782.91;10355302;28;20045;-74
2023/01/31 12:48:52;;;;;;;38.10;20.83;;;;;;;5.69;72.42;99794.06;10360952;28;20058;-74
2023/01/31 12:54:08;;;;;;;39.92;20.55;;;;;;;5.65;72.19;99795.31;10365113;28;20047;-74
2023/01/31 12:59:43;;;;;;;37.60;18.98;;;;;;;5.55;72.11;99790.13;10346531;28;20069;-74
2023/01/31 13:05:23;;;;;;;40.05;21.58;;;;;;;5.51;73.26;99799.31;10335993;28;20046;-74
2023/01/31 13:10:37;;;;;;;39.08;18.58;;;;;;;5.40;73.75;99797.69;10338710;28;20422;-75
2023/01/31 13:16:03;;;;;;;31.85;18.58;;;;;;;5.14;73.37;99781.75;10339501;28;20136;-76
2023/01/31 13:21:09;;;;;;;42.63;19.88;;;;;;;5.16;73.86;99807.97;10346464;28;20133;-73
2023/01/31 13:26:29;;;;;;;33.22;18.75;;;;;;;4.57;73.28;99720.53;10349062;28;20046;-75
2023/01/31 13:31:38;;;;;;;32.15;18.08;;;;;;;4.81;73.58;99764.75;10350741;28;20038;-75
2023/01/31 13:36:50;;;;;;;31.98;17.95;;;;;;;5.10;73.90;99816.44;10349702;28;20104;-75
2023/01/31 13:41:51;;;;;;;35.53;18.42;;;;;;;5.10;74.96;99813.81;10350055;28;20045;-74
2023/01/31 13:47:29;;;;;;;31.92;17.20;;;;;;;4.75;73.87;99752.16;10347124;28;20064;-73
2023/01/31 13:52:38;;;;;;;32.10;18.48;;;;;;;5.04;73.02;99821.31;10343946;28;20045;-74
2023/01/31 13:57:46;;;;;;;33.50;18.60;;;;;;;4.55;73.07;99738.28;10347234;28;20034;-74
2023/01/31 14:03:04;;;;;;;36.30;19.55;;;;;;;5.04;73.44;99805.50;10347905;28;20042;-74
2023/01/31 14:08:37;;;;;;;30.80;17.73;;;;;;;4.83;73.79;99757.53;10348578;28;20041;-74
2023/01/31 14:13:43;;;;;;;33.28;17.35;;;;;;;5.18;73.89;99809.47;10345351;28;20097;-74
2023/01/31 14:18:44;;;;;;;31.98;17.35;;;;;;;5.04;74.51;99817.84;10341975;28;20587;-74
2023/01/31 14:23:48;;;;;;;35.42;18.25;;;;;;;4.95;74.44;99798.50;10335815;28;20116;-75
2023/01/31 14:28:49;;;;;;;45.40;22.20;;;;;;;5.05;74.37;99808.97;10343874;28;20066;-72
2023/01/31 14:33:52;;;;;;;50.13;25.52;;;;;;;4.70;74.49;99736.00;10340849;28;20050;-72
2023/01/31 14:39:08;;;;;;;46.00;23.65;;;;;;;4.80;72.58;99752.56;10346597;28;20042;-72
2023/01/31 14:44:46;;;;;;;46.72;23.20;;;;;;;5.22;73.32;99828.44;10345919;28;20049;-72
2023/01/31 14:50:09;;;;;;;40.70;22.95;;;;;;;5.15;74.43;99832.63;10346911;28;20046;-73
2023/01/31 14:55:33;;;;;;;56.38;23.55;;;;;;;5.16;74.19;99826.41;10363080;28;20050;-74
2023/01/31 15:00:45;;;;;;;49.05;24.40;;;;;;;5.06;74.74;99839.59;10372297;28;20038;-73
2023/01/31 15:05:52;;;;;;;50.67;24.95;;;;;;;4.95;75.58;99853.75;10334648;28;20042;-72
2023/01/31 15:11:13;;;;;;;53.08;28.17;;;;;;;4.93;77.20;99852.25;10330796;28;20049;-74
2023/01/31 15:16:24;;;;;;;62.08;30.58;;;;;;;4.83;77.00;99864.63;10330845;28;20042;-74
2023/01/31 15:21:32;;;;;;;66.90;32.00;;;;;;;4.69;79.51;99860.63;10330495;28;20133;-74
2023/01/31 15:26:34;;;;;;;67.30;34.38;;;;;;;4.48;79.27;99837.94;10329563;28;20402;-74
2023/01/31 15:31:43;;;;;;;63.50;35.67;;;;;;;4.53;81.83;99851.50;10341978;28;20075;-74
2023/01/31 15:37:19;;;;;;;70.22;35.75;;;;;;;4.47;83.09;99846.81;10335152;28;20133;-74
2023/01/31 15:42:31;;;;;;;70.72;37.00;;;;;;;4.43;81.72;99850.72;10335484;28;20129;-74
2023/01/31 15:47:32;;;;;;;72.47;36.70;;;;;;;4.29;81.56;99830.09;10336346;28;20054;-72
2023/01/31 15:52:33;;;;;;;77.93;39.03;;;;;;;4.27;82.24;99817.09;10336115;28;20043;-72
2023/01/31 15:57:38;;;;;;;76.63;39.65;;;;;;;4.57;82.68;99852.06;10370505;28;20124;-73
2023/01/31 16:02:38;;;;;;;69.43;35.92;;;;;;;4.38;82.51;99813.47;10377723;28;20127;-73
2023/01/31 16:07:45;;;;;;;107.05;51.30;;;;;;;4.07;82.32;99753.22;10374113;28;20497;-72
2023/01/31 16:12:49;;;;;;;76.45;39.28;;;;;;;4.66;82.95;99834.59;10343138;28;20042;-73
2023/01/31 16:17:52;;;;;;;78.45;39.67;;;;;;;4.76;82.94;99853.84;10335947;28;20045;-74
2023/01/31 16:22:56;;;;;;;74.75;38.08;;;;;;;4.63;83.71;99827.00;10335983;28;20044;-76
2023/01/31 16:28:01;;;;;;;79.10;39.60;;;;;;;4.77;83.19;99858.94;10355095;28;20077;-75
2023/01/31 16:33:02;;;;;;;88.30;43.83;;;;;;;4.69;83.24;99847.47;10376314;28;20490;-75
2023/01/31 16:38:19;;;;;;;81.38;40.42;;;;;;;4.66;84.65;99848.56;10349781;28;20045;-74
2023/01/31 16:43:27;;;;;;;85.20;44.58;;;;;;;4.75;84.00;99857.41;10349402;28;20050;-73
2023/01/31 16:48:31;;;;;;;91.13;45.40;;;;;;;4.49;83.96;99817.75;10349612;28;20054;-72
2023/01/31 16:53:38;;;;;;;86.68;44.92;;;;;;;4.64;83.92;99845.28;10348234;28;20041;-72
2023/01/31 16:58:57;;;;;;;102.03;53.92;;;;;;;4.68;84.92;99853.72;10344489;28;20045;-73
2023/01/31 17:04:04;;;;;;;83.95;44.05;;;;;;;4.11;85.37;99767.72;10349227;28;20041;-73
2023/01/31 17:09:08;;;;;;;82.25;42.05;;;;;;;4.54;84.51;99842.66;10342046;28;20396;-75
2023/01/31 17:14:09;;;;;;;74.70;39.90;;;;;;;4.53;85.00;99855.94;10340334;28;20038;-75
2023/01/31 17:19:11;;;;;;;70.45;38.25;;;;;;;4.43;85.16;99840.19;10340819;28;20092;-75
2023/01/31 17:24:17;;;;;;;68.88;37.95;;;;;;;4.20;86.59;99802.03;10342431;28;20046;-75
2023/01/31 17:29:18;;;;;;;67.63;38.78;;;;;;;4.46;86.66;99844.34;10340981;28;20078;-76
2023/01/31 17:34:19;;;;;;;63.95;37.22;;;;;;;4.18;86.51;99817.91;10347201;28;20578;-77
2023/01/31 17:39:20;;;;;;;65.18;36.45;;;;;;;3.92;86.90;99762.50;10343703;28;20046;-76
2023/01/31 17:44:21;;;;;;;67.47;38.95;;;;;;;4.07;87.45;99787.38;10349397;28;20042;-75
2023/01/31 17:49:22;;;;;;;62.30;37.78;;;;;;;3.80;88.99;99764.44;10349921;28;20058;-75
2023/01/31 17:54:22;;;;;;;67.90;35.30;;;;;;;4.12;88.05;99827.19;10351985;28;20088;-75
2023/01/31 17:59:23;;;;;;;68.28;38.00;;;;;;;3.85;88.48;99766.63;10349543;28;20084;-75
2023/01/31 18:04:24;;;;;;;66.63;37.22;;;;;;;4.39;88.08;99835.34;10349163;28;20046;-74
2023/01/31 18:09:25;;;;;;;66.35;36.10;;;;;;;4.17;88.54;99797.06;10343221;28;20053;-75
2023/01/31 18:14:26;;;;;;;63.97;34.92;;;;;;;4.10;88.58;99787.09;10366295;28;20042;-75
2023/01/31 18:19:27;;;;;;;60.88;35.15;;;;;;;3.86;88.64;99739.41;10357732;28;20046;-74
2023/01/31 18:24:29;;;;;;;60.35;36.58;;;;;;;4.27;88.42;99814.44;10331662;28;20406;-75
2023/01/31 18:29:29;;;;;;;62.83;36.55;;;;;;;3.79;89.06;99740.91;10331991;28;20050;-74
2023/01/31 18:34:31;;;;;;;66.15;36.13;;;;;;;4.07;89.26;99808.41;10332232;28;20034;-74
2023/01/31 18:39:32;;;;;;;63.00;37.95;;;;;;;3.94;89.84;99814.91;10331226;28;20096;-75
2023/01/31 18:44:33;;;;;;;68.45;36.90;;;;;;;3.86;90.48;99808.53;10331387;28;20041;-74
2023/01/31 18:49:34;;;;;;;70.55;37.08;;;;;;;3.66;91.21;99807.69;10330459;28;20112;-74
2023/01/31 18:54:36;;;;;;;69.25;36.03;;;;;;;3.66;91.89;99799.00;10331440;28;20038;-74
2023/01/31 18:59:37;;;;;;;64.97;35.92;;;;;;;3.57;91.73;99800.63;10330280;28;20129;-74
2023/01/31 19:04:37;;;;;;;64.57;37.38;;;;;;;3.08;91.46;99714.88;10329256;28;20132;-74
2023/01/31 19:09:38;;;;;;;65.05;33.47;;;;;;;3.20;91.84;99735.63;10336866;28;20057;-74
2023/01/31 19:14:39;;;;;;;70.25;37.22;;;;;;;3.71;93.05;99823.06;10377425;28;20405;-74
2023/01/31 19:19:40;;;;;;;65.63;34.55;;;;;;;3.69;92.52;99811.84;10379771;28;20042;-75
2023/01/31 19:24:40;;;;;;;57.15;33.83;;;;;;;3.36;92.28;99771.84;10378510;28;20128;-74
2023/01/31 19:29:41;;;;;;;66.93;37.40;;;;;;;3.35;93.36;99788.59;10378654;28;20100;-74
2023/01/31 19:34:42;;;;;;;65.18;35.25;;;;;;;3.24;93.83;99766.88;10377816;28;20117;-74
2023/01/31 19:39:43;;;;;;;67.75;34.97;;;;;;;2.50;93.82;99655.25;10378009;28;20133;-74
2023/01/31 19:44:44;;;;;;;65.30;35.38;;;;;;;3.17;93.73;99772.66;10377386;28;20124;-74
2023/01/31 19:49:45;;;;;;;64.20;35.42;;;;;;;3.43;94.14;99811.53;10377954;28;20132;-74
2023/01/31 19:54:46;;;;;;;59.88;34.13;;;;;;;3.18;93.39;99763.81;10377652;28;20525;-74
2023/01/31 19:59:47;;;;;;;60.00;34.45;;;;;;;3.49;93.71;99812.78;10378101;28;20073;-74
2023/01/31 20:04:47;;;;;;;56.45;33.63;;;;;;;2.42;94.39;99647.19;10352812;28;20112;-73
2023/01/31 20:09:48;;;;;;;68.72;34.47;;;;;;;3.48;93.83;99811.97;10336404;28;20078;-74
2023/01/31 20:14:49;;;;;;;65.75;34.60;;;;;;;3.48;93.82;99814.59;10336928;28;20076;-73
2023/01/31 20:19:50;;;;;;;55.47;31.35;;;;;;;2.90;94.13;99726.03;10336710;28;20074;-74
2023/01/31 20:24:52;;;;;;;61.20;34.15;;;;;;;3.47;94.60;99814.69;10336875;28;20467;-74
2023/01/31 20:29:53;;;;;;;57.58;31.75;;;;;;;3.26;94.36;99775.41;10335928;28;20053;-74
2023/01/31 20:34:54;;;;;;;67.68;35.05;;;;;;;3.44;94.21;99813.22;10336514;28;20038;-74
2023/01/31 20:39:54;;;;;;;63.55;33.40;;;;;;;3.44;94.64;99807.94;10335288;28;20674;-74
2023/01/31 20:44:55;;;;;;;63.15;32.70;;;;;;;3.38;94.26;99801.44;10334993;28;20125;-74
2023/01/31 20:49:56;;;;;;;64.65;32.10;;;;;;;3.46;94.26;99815.69;10335389;28;20489;-74
2023/01/31 20:54:57;;;;;;;57.50;31.30;;;;;;;3.32;95.04;99798.50;10335365;28;20391;-74
2023/01/31 20:59:58;;;;;;;69.60;32.83;;;;;;;3.42;94.97;99818.56;10334578;28;20038;-74
2023/01/31 21:04:58;;;;;;;57.75;32.33;;;;;;;3.36;94.92;99808.63;10334445;28;20045;-74
2023/01/31 21:09:59;;;;;;;59.00;32.58;;;;;;;2.91;94.62;99724.25;10335155;28;20136;-73
2023/01/31 21:15:00;;;;;;;64.10;33.38;;;;;;;3.36;94.74;99792.03;10334192;28;20089;-74
2023/01/31 21:20:01;;;;;;;57.97;32.83;;;;;;;3.11;94.59;99746.94;10334134;28;20038;-73
2023/01/31 21:25:01;;;;;;;59.85;31.92;;;;;;;3.46;95.04;99821.75;10333288;28;20035;-74
2023/01/31 21:30:03;;;;;;;58.47;31.63;;;;;;;3.44;94.84;99821.09;10333672;28;20046;-73
2023/01/31 21:35:04;;;;;;;60.50;32.20;;;;;;;2.78;95.50;99702.66;10332313;28;20038;-73
2023/01/31 21:40:06;;;;;;;65.03;33.33;;;;;;;2.81;94.64;99707.63;10333933;28;20041;-73
2023/01/31 21:45:08;;;;;;;60.50;33.13;;;;;;;3.40;95.12;99798.66;10333698;28;20057;-74
2023/01/31 21:50:09;;;;;;;59.83;32.53;;;;;;;3.43;95.21;99801.03;10332647;28;20054;-74
2023/01/31 21:55:10;;;;;;;60.10;32.40;;;;;;;3.38;95.55;99798.81;10333733;28;20474;-73
2023/01/31 22:00:11;;;;;;;51.67;30.27;;;;;;;3.37;95.03;99791.06;10332753;28;20045;-74
2023/01/31 22:05:12;;;;;;;59.85;33.13;;;;;;;3.39;95.96;99784.72;10332447;28;20042;-74
2023/01/31 22:10:13;;;;;;;54.70;32.35;;;;;;;3.46;94.94;99798.13;10331897;28;20050;-74
2023/01/31 22:15:14;;;;;;;63.40;32.55;;;;;;;3.31;95.43;99779.31;10357270;28;20099;-73
2023/01/31 22:20:15;;;;;;;63.67;33.38;;;;;;;3.05;95.81;99738.75;10372029;28;20064;-74
2023/01/31 22:25:16;;;;;;;60.08;32.33;;;;;;;3.41;95.46;99802.94;10370849;28;20064;-73
2023/01/31 22:30:16;;;;;;;60.67;32.22;;;;;;;3.03;96.05;99744.16;10372224;28;20048;-73
2023/01/31 22:35:17;;;;;;;64.00;33.17;;;;;;;3.19;95.80;99775.97;10372071;28;20069;-73
2023/01/31 22:40:18;;;;;;;61.28;33.35;;;;;;;3.24;96.35;99786.06;10371454;28;20414;-73
2023/01/31 22:45:19;;;;;;;67.57;33.58;;;;;;;3.13;96.41;99765.16;10374625;28;20457;-73
2023/01/31 22:50:19;;;;;;;63.88;32.92;;;;;;;3.31;96.67;99789.81;10379355;28;20387;-73
2023/01/31 22:55:20;;;;;;;56.75;32.35;;;;;;;3.36;96.05;99794.66;10380544;28;20457;-74
2023/01/31 23:00:21;;;;;;;54.22;31.67;;;;;;;3.29;96.67;99789.13;10379992;28;20038;-74
2023/01/31 23:05:21;;;;;;;56.63;33.20;;;;;;;3.00;97.07;99746.22;10379868;28;20486;-74
2023/01/31 23:10:24;;;;;;;62.00;32.90;;;;;;;3.27;96.64;99798.91;10378496;28;20448;-73
2023/01/31 23:15:25;;;;;;;55.35;31.33;;;;;;;2.91;96.68;99738.19;10379053;28;20077;-74
2023/01/31 23:20:27;;;;;;;65.15;32.92;;;;;;;3.29;97.56;99804.03;10380306;28;20066;-73